Terminal Aerodrome Forecast
Issued by NWS Des Moines, IA

Home | Current Version | Previous Version | Text Only | Print | Product List | Glossary On
Versions: 1 2 3 4 5 6 7 8 9 10 11 12 13 14 15
000
FTUS43 KDMX 291127
TAFDSM
TAF
KDSM 291127Z 2912/3012 35006KT P6SM BKN010
     FM291800 35007KT P6SM BKN020
     FM292000 36007KT P6SM BKN040
     FM300300 01004KT P6SM SCT060=

USA.gov is the U.S. government's official web portal to all federal, state and local government web resources and services.